Map

Track Data

SID SEASON NUMBER BASIN SUBBASIN NAME ISO_TIME NATURE LAT LON WMO_WIND WMO_PRES WMO_AGENCY TRACK_TYPE DIST2LAND LANDFALL IFLAG USA_AGENCY USA_ATCF_ID USA_LAT USA_LON USA_RECORD USA_STATUS USA_WIND USA_PRES USA_SSHS USA_R34_NE USA_R34_SE USA_R34_SW USA_R34_NW USA_R50_NE USA_R50_SE USA_R50_SW USA_R50_NW USA_R64_NE USA_R64_SE USA_R64_SW USA_R64_NW USA_POCI USA_ROCI USA_RMW USA_EYE TOKYO_LAT TOKYO_LON TOKYO_GRADE TOKYO_WIND TOKYO_PRES TOKYO_R50_DIR TOKYO_R50_LONG TOKYO_R50_SHORT TOKYO_R30_DIR TOKYO_R30_LONG TOKYO_R30_SHORT TOKYO_LAND CMA_LAT CMA_LON CMA_CAT CMA_WIND CMA_PRES HKO_LAT HKO_LON HKO_CAT HKO_WIND HKO_PRES NEWDELHI_LAT NEWDELHI_LON NEWDELHI_GRADE NEWDELHI_WIND NEWDELHI_PRES NEWDELHI_CI NEWDELHI_DP NEWDELHI_POCI REUNION_LAT REUNION_LON REUNION_TYPE REUNION_WIND REUNION_PRES REUNION_TNUM REUNION_CI REUNION_RMW REUNION_R34_NE REUNION_R34_SE REUNION_R34_SW REUNION_R34_NW REUNION_R50_NE REUNION_R50_SE REUNION_R50_SW REUNION_R50_NW REUNION_R64_NE REUNION_R64_SE REUNION_R64_SW REUNION_R64_NW BOM_LAT BOM_LON BOM_TYPE BOM_WIND BOM_PRES BOM_TNUM BOM_CI BOM_RMW BOM_R34_NE BOM_R34_SE BOM_R34_SW BOM_R34_NW BOM_R50_NE BOM_R50_SE BOM_R50_SW BOM_R50_NW BOM_R64_NE BOM_R64_SE BOM_R64_SW BOM_R64_NW BOM_ROCI BOM_POCI BOM_EYE BOM_POS_METHOD BOM_PRES_METHOD NADI_LAT NADI_LON NADI_CAT NADI_WIND NADI_PRES WELLINGTON_LAT WELLINGTON_LON WELLINGTON_WIND WELLINGTON_PRES DS824_LAT DS824_LON DS824_STAGE DS824_WIND DS824_PRES TD9636_LAT TD9636_LON TD9636_STAGE TD9636_WIND TD9636_PRES TD9635_LAT TD9635_LON TD9635_WIND TD9635_PRES TD9635_ROCI NEUMANN_LAT NEUMANN_LON NEUMANN_CLASS NEUMANN_WIND NEUMANN_PRES MLC_LAT MLC_LON MLC_CLASS MLC_WIND MLC_PRES USA_GUST BOM_GUST BOM_GUST_PER REUNION_GUST REUNION_GUST_PER USA_SEAHGT USA_SEARAD_NE USA_SEARAD_SE USA_SEARAD_SW USA_SEARAD_NW STORM_SPEED STORM_DIR
1922021S18041 1922 8 SI MM NOT_NAMED 1922-01-21 06:00:00 NR -17.6000 40.9000 reunion main 169 169 _____O________ -1 -17.6000 40.9000 99 9.90000 1 0
1922021S18041 1922 8 SI MM NOT_NAMED 1922-01-21 09:00:00 NR -17.6250 40.9120 main 169 169 _____P________ -1 -17.6250 40.9120 99 1 168
1922021S18041 1922 8 SI MM NOT_NAMED 1922-01-21 12:00:00 NR -17.6547 40.9253 main 178 178 _____P________ -1 -17.6547 40.9253 99 1 0
1922021S18041 1922 8 SI MM NOT_NAMED 1922-01-21 15:00:00 NR -17.6940 40.9410 main 178 178 _____P________ -1 -17.6940 40.9410 99 1 152
1922021S18041 1922 8 SI MM NOT_NAMED 1922-01-21 18:00:00 NR -17.7475 40.9604 main 185 185 _____P________ -1 -17.7475 40.9604 99 1 164
1922021S18041 1922 8 SI MM NOT_NAMED 1922-01-21 21:00:00 NR -17.8201 40.9847 main 193 193 _____P________ -1 -17.8201 40.9847 99 2 163
1922021S18041 1922 8 SI MM NOT_NAMED 1922-01-22 00:00:00 NR -17.9166 41.0153 main 201 201 _____P________ -1 -17.9166 41.0153 99 2 164
1922021S18041 1922 8 SI MM NOT_NAMED 1922-01-22 03:00:00 NR -18.0416 41.0533 main 217 217 _____P________ -1 -18.0416 41.0533 99 3 165
1922021S18041 1922 8 SI MM NOT_NAMED 1922-01-22 06:00:00 NR -18.2000 41.1000 reunion main 235 235 _____O________ -1 -18.2000 41.1000 99 9.90000 4 164
1922021S18041 1922 8 SI MM NOT_NAMED 1922-01-22 09:00:00 NR -18.3945 41.1565 main 259 259 _____P________ -1 -18.3945 41.1565 99 4 164
1922021S18041 1922 8 SI MM NOT_NAMED 1922-01-22 12:00:00 NR -18.6197 41.2226 main 277 277 _____P________ -1 -18.6197 41.2226 99 5 165
1922021S18041 1922 8 SI MM NOT_NAMED 1922-01-22 15:00:00 NR -18.8681 41.2980 main 289 281 _____P________ -1 -18.8681 41.2980 99 5 163
1922021S18041 1922 8 SI MM NOT_NAMED 1922-01-22 18:00:00 NR -19.1324 41.3822 main 284 281 _____P________ -1 -19.1324 41.3822 99 6 163
1922021S18041 1922 8 SI MM NOT_NAMED 1922-01-22 21:00:00 NR -19.4052 41.4750 main 285 269 _____P________ -1 -19.4052 41.4750 99 6 162
1922021S18041 1922 8 SI MM NOT_NAMED 1922-01-23 00:00:00 NR -19.6790 41.5758 main 269 250 _____P________ -1 -19.6790 41.5758 99 6 160
1922021S18041 1922 8 SI MM NOT_NAMED 1922-01-23 03:00:00 NR -19.9464 41.6843 main 250 221 _____P________ -1 -19.9464 41.6843 99 6 158
1922021S18041 1922 8 SI MM NOT_NAMED 1922-01-23 06:00:00 NR -20.2000 41.8000 reunion main 221 200 _____O________ -1 -20.2000 41.8000 99 9.90000 5 159
1922021S18041 1922 8 SI MM NOT_NAMED 1922-01-23 09:00:00 NR -20.3808 41.8603 main 200 194 _____P________ -1 -20.3808 41.8603 99 4 162
1922021S18041 1922 8 SI MM NOT_NAMED 1922-01-23 12:00:00 NR -20.5475 41.9215 main 194 174 _____P________ -1 -20.5475 41.9215 99 4 159
1922021S18041 1922 8 SI MM NOT_NAMED 1922-01-23 15:00:00 NR -20.7081 41.9943 main 174 155 _____P________ -1 -20.7081 41.9943 99 4 154
1922021S18041 1922 8 SI MM NOT_NAMED 1922-01-23 18:00:00 NR -20.8706 42.0889 main 155 141 _____P________ -1 -20.8706 42.0889 99 4 148
1922021S18041 1922 8 SI MM NOT_NAMED 1922-01-23 21:00:00 NR -21.0431 42.2161 main 141 116 _____P________ -1 -21.0431 42.2161 99 5 143
1922021S18041 1922 8 SI MM NOT_NAMED 1922-01-24 00:00:00 NR -21.2335 42.3864 main 116 93 _____P________ -1 -21.2335 42.3864 99 6 138
1922021S18041 1922 8 SI MM NOT_NAMED 1922-01-24 03:00:00 NR -21.4499 42.6107 main 93 52 _____P________ -1 -21.4499 42.6107 99 7 134
1922021S18041 1922 8 SI MM NOT_NAMED 1922-01-24 06:00:00 NR -21.7000 42.9000 reunion main 52 0 _____O________ -1 -21.7000 42.9000 99 9.90000 9 132
1922021S18041 1922 8 SI MM NOT_NAMED 1922-01-24 09:00:00 NR -22.0572 43.3486 main 0 0 _____P________ -1 -22.0572 43.3486 99 12 130
1922021S18041 1922 8 SI MM NOT_NAMED 1922-01-24 12:00:00 NR -22.4518 43.8737 main 0 0 _____P________ -1 -22.4518 43.8737 99 13 129
1922021S18041 1922 8 SI MM NOT_NAMED 1922-01-24 15:00:00 NR -22.8673 44.4504 main 0 0 _____P________ -1 -22.8673 44.4504 99 14 128
1922021S18041 1922 8 SI MM NOT_NAMED 1922-01-24 18:00:00 NR -23.2873 45.0534 main 0 0 _____P________ -1 -23.2873 45.0534 99 14 127
1922021S18041 1922 8 SI MM NOT_NAMED 1922-01-24 21:00:00 NR -23.6959 45.6567 main 0 0 _____P________ -1 -23.6959 45.6567 99 13 126
1922021S18041 1922 8 SI MM NOT_NAMED 1922-01-25 00:00:00 NR -24.0776 46.2338 main 0 0 _____P________ -1 -24.0776 46.2338 99 12 126
1922021S18041 1922 8 SI MM NOT_NAMED 1922-01-25 03:00:00 NR -24.4172 46.7574 main 0 0 _____P________ -1 -24.4172 46.7574 99 11 125
1922021S18041 1922 8 SI MM NOT_NAMED 1922-01-25 06:00:00 NR -24.7000 47.2000 reunion main 0 0 _____O________ -1 -24.7000 47.2000 99 9.90000 9 125
1922021S18041 1922 8 SI MM NOT_NAMED 1922-01-25 09:00:00 NR -24.9156 47.5408 main 37 37 _____P________ -1 -24.9156 47.5408 99 6 125
1922021S18041 1922 8 SI MM NOT_NAMED 1922-01-25 12:00:00 NR -25.0695 47.7857 main 71 71 _____P________ -1 -25.0695 47.7857 99 4 125
1922021S18041 1922 8 SI MM NOT_NAMED 1922-01-25 15:00:00 NR -25.1709 47.9482 main 83 83 _____P________ -1 -25.1709 47.9482 99 3 125
1922021S18041 1922 8 SI MM NOT_NAMED 1922-01-25 18:00:00 NR -25.2287 48.0416 main 93 93 _____P________ -1 -25.2287 48.0416 99 1 125
1922021S18041 1922 8 SI MM NOT_NAMED 1922-01-25 21:00:00 NR -25.2519 48.0797 main 106 103 _____P________ -1 -25.2519 48.0797 99 0 121
1922021S18041 1922 8 SI MM NOT_NAMED 1922-01-26 00:00:00 NR -25.2490 48.0762 main 103 93 _____P________ -1 -25.2490 48.0762 99 0 306
1922021S18041 1922 8 SI MM NOT_NAMED 1922-01-26 03:00:00 NR -25.2289 48.0450 main 93 93 _____P________ -1 -25.2289 48.0450 99 1 304
1922021S18041 1922 8 SI MM NOT_NAMED 1922-01-26 06:00:00 NR -25.2000 48.0000 reunion main 93 _____O________ -1 -25.2000 48.0000 99 9.90000 1 301

About IBTrACS Database

This database is a web-friendly format of International Best Track Archive for Climate Stewardship (IBTrACS), a global best track data archive curated by NOAA dating back to 1842.

Updated: 2021-12-06